Time;durP1;ratioP1;P1;durP2;ratioP2;P2;SDS_P1;SDS_P2;PMS_P1;PMS_P2;Temp;Humidity;BMP_temperature;BMP_pressure;BME280_temperature;BME280_humidity;BME280_pressure;Samples;Min_cycle;Max_cycle;Signal;HPM_P1;HPM_P2
2022/10/10 00:00:40;;;;;;;6.28;2.67;;;7.30;99.90;;;;;;5111222;28;20044;-85
2022/10/10 00:03:07;;;;;;;4.65;2.58;;;7.30;99.90;;;;;;5094323;28;20127;-85
2022/10/10 00:05:35;;;;;;;6.35;3.00;;;7.20;99.90;;;;;;5111233;28;20522;-85
2022/10/10 00:08:03;;;;;;;7.07;2.55;;;7.20;99.90;;;;;;5111591;28;20172;-85
2022/10/10 00:10:30;;;;;;;6.28;2.50;;;7.10;99.90;;;;;;5111073;28;20036;-85
2022/10/10 00:12:57;;;;;;;4.47;2.22;;;7.10;99.90;;;;;;5110927;28;20058;-85
2022/10/10 00:15:24;;;;;;;5.45;2.60;;;7.10;99.90;;;;;;5094576;28;20126;-85
2022/10/10 00:17:51;;;;;;;4.22;2.13;;;7.10;99.90;;;;;;5094524;28;20412;-85
2022/10/10 00:20:19;;;;;;;5.03;2.13;;;7.10;99.90;;;;;;5094694;28;20046;-85
2022/10/10 00:22:46;;;;;;;4.95;2.40;;;7.00;99.90;;;;;;5127837;28;20097;-85
2022/10/10 00:25:14;;;;;;;3.80;2.38;;;7.00;99.90;;;;;;5111081;28;20068;-85
2022/10/10 00:27:40;;;;;;;5.95;2.30;;;7.00;99.90;;;;;;5094327;28;20127;-85
2022/10/10 00:30:08;;;;;;;6.38;2.50;;;7.30;99.90;;;;;;5094298;28;20151;-85
2022/10/10 00:32:35;;;;;;;4.45;2.38;;;6.90;99.90;;;;;;5110243;28;20043;-86
2022/10/10 00:35:03;;;;;;;4.00;2.40;;;6.90;99.90;;;;;;5110929;28;20040;-85
2022/10/10 00:37:29;;;;;;;4.35;2.28;;;6.80;99.90;;;;;;5110824;28;20044;-85
2022/10/10 00:39:56;;;;;;;4.28;2.38;;;7.10;99.90;;;;;;5094437;28;20051;-85
2022/10/10 00:42:23;;;;;;;4.53;2.40;;;6.70;99.90;;;;;;5110679;28;20098;-85
2022/10/10 00:45:29;;;;;;;4.18;2.60;;;6.60;99.90;;;;;;5093778;28;20072;-86
2022/10/10 00:48:18;;;;;;;6.28;2.80;;;6.60;99.90;;;;;;5110186;28;20127;-86
2022/10/10 00:50:54;;;;;;;5.93;2.33;;;6.60;99.90;;;;;;5110354;28;20077;-85
2022/10/10 00:53:22;;;;;;;;;;;6.60;99.90;;;;;;5111099;28;20044;-84
2022/10/10 00:55:51;;;;;;;4.28;1.98;;;6.50;99.90;;;;;;5090051;28;19917;-85
2022/10/10 00:58:18;;;;;;;3.92;2.08;;;7.00;99.90;;;;;;5090639;28;20075;-85
2022/10/10 01:00:45;;;;;;;5.22;2.30;;;6.50;99.90;;;;;;5090176;28;20098;-85
2022/10/10 01:03:12;;;;;;;4.13;2.30;;;7.10;99.90;;;;;;5057199;28;20501;-85
2022/10/10 01:05:40;;;;;;;5.22;1.88;;;6.50;99.90;;;;;;5080319;28;20032;-85
2022/10/10 01:08:08;;;;;;;4.20;2.10;;;6.80;99.90;;;;;;5093541;28;20526;-85
2022/10/10 01:10:49;;;;;;;4.78;2.28;;;6.50;99.90;;;;;;5110356;28;20044;-85
2022/10/10 01:13:34;;;;;;;7.72;2.25;;;6.50;99.90;;;;;;5110307;28;20114;-85
2022/10/10 01:16:30;;;;;;;9.10;2.58;;;6.60;99.90;;;;;;5109873;28;20435;-85
2022/10/10 01:19:15;;;;;;;5.00;2.22;;;6.60;99.90;;;;;;5094407;28;20168;-85
2022/10/10 01:21:51;;;;;;;5.60;2.30;;;6.60;99.90;;;;;;5127200;28;20123;-85
2022/10/10 01:25:12;;;;;;;6.03;2.50;;;6.60;99.90;;;;;;5109945;28;20097;-86
2022/10/10 01:27:46;;;;;;;4.38;2.25;;;6.70;99.90;;;;;;5111237;28;20040;-85
2022/10/10 01:30:24;;;;;;;7.07;2.28;;;6.70;99.90;;;;;;5110380;28;20040;-85
2022/10/10 01:32:57;;;;;;;3.88;2.00;;;6.70;99.90;;;;;;5109826;28;20518;-85
2022/10/10 01:35:35;;;;;;;7.57;3.08;;;6.80;99.90;;;;;;5110003;28;20488;-85
2022/10/10 01:38:06;;;;;;;8.25;2.15;;;6.80;99.90;;;;;;5126724;28;20083;-85
2022/10/10 01:40:36;;;;;;;7.32;2.38;;;7.20;99.90;;;;;;5109838;28;20537;-85
2022/10/10 01:43:06;;;;;;;6.50;2.50;;;6.90;99.90;;;;;;5109779;28;20047;-85
2022/10/10 01:45:33;;;;;;;5.80;2.03;;;6.90;99.90;;;;;;5113927;28;20043;-85
2022/10/10 01:48:03;;;;;;;5.30;2.00;;;7.50;99.90;;;;;;5113948;28;20040;-85
2022/10/10 01:50:34;;;;;;;5.38;2.15;;;6.90;99.90;;;;;;5114172;28;20044;-85
2022/10/10 01:53:08;;;;;;;4.70;2.42;;;6.90;99.90;;;;;;5113689;28;20036;-85
2022/10/10 01:55:41;;;;;;;4.47;2.38;;;6.90;99.90;;;;;;5113960;28;20044;-85
2022/10/10 01:58:31;;;;;;;4.30;1.90;;;6.90;99.90;;;;;;5113484;28;20403;-85
2022/10/10 02:01:11;;;;;;;5.82;2.65;;;6.90;99.90;;;;;;5113910;28;20039;-85
2022/10/10 02:03:44;;;;;;;5.20;2.10;;;6.90;99.90;;;;;;5105652;28;20064;-85
2022/10/10 02:06:29;;;;;;;5.35;2.63;;;6.90;99.90;;;;;;5110148;28;20052;-85
2022/10/10 02:09:02;;;;;;;5.05;1.90;;;6.80;99.90;;;;;;5109805;28;20448;-85
2022/10/10 02:11:33;;;;;;;5.35;2.10;;;7.90;99.90;;;;;;5093425;28;20094;-85
2022/10/10 02:14:15;;;;;;;5.75;1.83;;;6.90;99.90;;;;;;5093223;28;20115;-85
2022/10/10 02:16:46;;;;;;;4.22;2.20;;;6.90;99.90;;;;;;5093261;28;20056;-85
2022/10/10 02:19:18;;;;;;;5.25;2.38;;;6.90;99.90;;;;;;5103321;28;20068;-85
2022/10/10 02:21:47;;;;;;;6.53;2.28;;;6.80;99.90;;;;;;5081011;28;20462;-85
2022/10/10 02:24:15;;;;;;;5.75;2.30;;;6.90;99.90;;;;;;5093283;28;20484;-85
2022/10/10 02:26:45;;;;;;;5.70;2.58;;;6.80;99.90;;;;;;5093135;28;20396;-85
2022/10/10 02:29:18;;;;;;;5.63;2.03;;;6.80;99.90;;;;;;5092863;28;20041;-85
2022/10/10 02:32:11;;;;;;;3.67;1.88;;;6.80;99.90;;;;;;5092932;28;20069;-85
2022/10/10 02:34:50;;;;;;;3.38;1.83;;;6.80;99.90;;;;;;5093489;28;20047;-86
2022/10/10 02:37:18;;;;;;;5.10;2.35;;;6.70;99.90;;;;;;5109676;28;20044;-85
2022/10/10 02:39:50;;;;;;;4.70;2.47;;;6.70;99.90;;;;;;5076285;28;20032;-85
2022/10/10 02:42:20;;;;;;;5.32;1.92;;;6.70;99.90;;;;;;5092582;28;20067;-85
2022/10/10 02:44:47;;;;;;;4.10;2.05;;;6.80;99.90;;;;;;5093021;28;20051;-85
2022/10/10 02:47:13;;;;;;;5.72;2.45;;;6.80;99.90;;;;;;5076008;28;20036;-85
2022/10/10 02:49:40;;;;;;;5.35;2.00;;;6.80;99.90;;;;;;5059747;28;20042;-85
2022/10/10 02:52:08;;;;;;;4.93;2.00;;;6.70;99.90;;;;;;5059714;28;20198;-85
2022/10/10 02:54:35;;;;;;;5.57;2.33;;;6.80;99.90;;;;;;5076060;28;20047;-85
2022/10/10 02:57:01;;;;;;;8.35;2.47;;;6.70;99.90;;;;;;5059592;28;20131;-85
2022/10/10 02:59:28;;;;;;;3.47;1.98;;;6.70;99.90;;;;;;5076018;28;20048;-85
2022/10/10 03:01:54;;;;;;;3.85;2.08;;;6.70;99.90;;;;;;5059529;28;20131;-85
2022/10/10 03:04:21;;;;;;;4.95;2.28;;;6.70;99.90;;;;;;5087046;28;20040;-85
2022/10/10 03:06:48;;;;;;;4.68;2.42;;;6.70;99.90;;;;;;5095581;28;20135;-85
2022/10/10 03:09:15;;;;;;;5.50;2.42;;;6.70;99.90;;;;;;5112057;28;20068;-85
2022/10/10 03:11:41;;;;;;;4.15;1.80;;;6.60;99.90;;;;;;5112171;28;20043;-85
2022/10/10 03:14:08;;;;;;;4.80;2.13;;;6.60;99.90;;;;;;5095518;28;20508;-85
2022/10/10 03:16:35;;;;;;;5.45;1.98;;;6.60;99.90;;;;;;5095171;28;20399;-85
2022/10/10 03:19:02;;;;;;;5.00;2.22;;;7.00;99.90;;;;;;5095349;28;20066;-85
2022/10/10 03:21:29;;;;;;;5.50;2.28;;;7.00;99.90;;;;;;5079406;28;20047;-85
2022/10/10 03:23:56;;;;;;;4.22;1.98;;;6.60;99.90;;;;;;5095634;28;20040;-85
2022/10/10 03:26:23;;;;;;;5.68;2.22;;;7.00;99.90;;;;;;5095796;28;20533;-85
2022/10/10 03:28:49;;;;;;;5.00;2.15;;;6.90;99.90;;;;;;5095597;28;20123;-85
2022/10/10 03:31:16;;;;;;;5.40;2.17;;;6.50;99.90;;;;;;5095582;28;20068;-85
2022/10/10 03:33:43;;;;;;;4.63;2.25;;;6.50;99.90;;;;;;5112018;28;20040;-85
2022/10/10 03:36:10;;;;;;;9.13;2.30;;;5.40;99.90;;;;;;5078544;28;20044;-85
2022/10/10 03:38:38;;;;;;;6.22;2.53;;;6.50;99.90;;;;;;5112118;28;20052;-85
2022/10/10 03:41:05;;;;;;;4.40;2.22;;;6.50;99.90;;;;;;5095332;28;20411;-85
2022/10/10 03:43:32;;;;;;;4.57;2.20;;;7.70;99.90;;;;;;5111972;28;20040;-85
2022/10/10 03:45:58;;;;;;;3.80;2.05;;;6.50;99.90;;;;;;5111731;28;20093;-85
2022/10/10 03:48:25;;;;;;;5.15;2.28;;;7.50;99.90;;;;;;5095115;28;20404;-85
2022/10/10 03:50:52;;;;;;;6.88;2.40;;;6.50;99.90;;;;;;5095145;28;20054;-85
2022/10/10 03:53:18;;;;;;;4.93;2.60;;;6.50;99.90;;;;;;5095132;28;20048;-85
2022/10/10 03:55:45;;;;;;;5.30;2.42;;;6.80;99.90;;;;;;5128480;28;20079;-85
2022/10/10 03:58:12;;;;;;;5.78;2.40;;;6.50;99.90;;;;;;5094525;28;20040;-85
2022/10/10 04:00:38;;;;;;;6.13;2.40;;;6.60;99.90;;;;;;5094565;28;20036;-85
2022/10/10 04:03:06;;;;;;;6.55;2.60;;;6.50;99.90;;;;;;5094304;28;20044;-84
2022/10/10 04:05:35;;;;;;;6.22;2.45;;;6.50;99.90;;;;;;5095017;28;20043;-85
2022/10/10 04:08:02;;;;;;;6.28;2.70;;;6.70;99.90;;;;;;5127800;28;20048;-85
2022/10/10 04:10:28;;;;;;;5.18;2.70;;;6.50;99.90;;;;;;5111752;28;20040;-85
2022/10/10 04:12:55;;;;;;;7.15;2.38;;;6.50;99.90;;;;;;5094576;28;20035;-85
2022/10/10 04:15:22;;;;;;;4.50;2.55;;;6.60;99.90;;;;;;5094775;28;20057;-85
2022/10/10 04:17:48;;;;;;;5.78;2.63;;;6.50;99.90;;;;;;5111338;28;20040;-85
2022/10/10 04:20:15;;;;;;;6.03;2.20;;;6.50;99.90;;;;;;5094486;28;20044;-85
2022/10/10 04:22:43;;;;;;;5.88;2.20;;;6.50;99.90;;;;;;5094770;28;20042;-85
2022/10/10 04:25:10;;;;;;;4.60;2.25;;;6.60;99.90;;;;;;5090712;28;20041;-85
2022/10/10 04:27:37;;;;;;;7.60;2.22;;;6.50;99.90;;;;;;5074629;28;20048;-85
2022/10/10 04:30:05;;;;;;;5.45;2.42;;;6.50;99.90;;;;;;5074443;28;20082;-85
2022/10/10 04:32:32;;;;;;;5.20;2.50;;;6.50;99.90;;;;;;5090673;28;20407;-85
2022/10/10 04:34:58;;;;;;;7.07;2.67;;;7.50;99.90;;;;;;5074315;28;20127;-85
2022/10/10 04:37:25;;;;;;;4.75;2.40;;;6.50;99.90;;;;;;5073944;28;20485;-85
2022/10/10 04:39:52;;;;;;;5.93;2.83;;;6.50;99.90;;;;;;5090656;28;20047;-85
2022/10/10 04:42:18;;;;;;;5.05;2.78;;;6.50;99.90;;;;;;5073889;28;20463;-85
2022/10/10 04:44:45;;;;;;;7.05;2.60;;;6.50;99.90;;;;;;5090570;28;20123;-85
2022/10/10 04:47:12;;;;;;;4.95;2.50;;;7.10;99.90;;;;;;5090309;28;20037;-85
2022/10/10 04:49:40;;;;;;;6.45;2.90;;;7.00;99.90;;;;;;5090316;28;20500;-85
2022/10/10 04:52:09;;;;;;;5.07;2.55;;;7.10;99.90;;;;;;5090735;28;20086;-85
2022/10/10 04:54:36;;;;;;;7.35;2.65;;;6.50;99.90;;;;;;5073343;28;20044;-85
2022/10/10 04:57:03;;;;;;;4.43;2.40;;;6.50;99.90;;;;;;5073348;28;20043;-85
2022/10/10 04:59:30;;;;;;;8.32;2.72;;;6.50;99.90;;;;;;5089420;28;20052;-85
2022/10/10 05:01:56;;;;;;;5.43;2.83;;;6.50;99.90;;;;;;5073333;28;20421;-86
2022/10/10 05:04:23;;;;;;;5.03;2.67;;;6.50;99.90;;;;;;5072899;28;20131;-85
2022/10/10 05:06:50;;;;;;;5.93;2.78;;;7.00;99.90;;;;;;5073317;28;20032;-85
2022/10/10 05:09:16;;;;;;;5.45;2.80;;;6.50;99.90;;;;;;5073688;28;20040;-85
2022/10/10 05:11:43;;;;;;;7.10;2.90;;;6.50;99.90;;;;;;5090136;28;20392;-85
2022/10/10 05:14:10;;;;;;;5.50;2.60;;;6.50;99.90;;;;;;5089982;28;20044;-85
2022/10/10 05:16:36;;;;;;;5.70;2.83;;;6.50;99.90;;;;;;5073463;28;20407;-85
2022/10/10 05:19:03;;;;;;;6.43;2.75;;;6.50;99.90;;;;;;5089842;28;20044;-85
2022/10/10 05:21:30;;;;;;;4.75;2.53;;;6.50;99.90;;;;;;5078418;28;20503;-86
2022/10/10 05:23:57;;;;;;;5.90;2.42;;;6.40;99.90;;;;;;5076774;28;20511;-85
2022/10/10 05:26:23;;;;;;;4.43;2.60;;;6.50;99.90;;;;;;5093410;28;20040;-85
2022/10/10 05:28:50;;;;;;;8.10;2.75;;;6.40;99.90;;;;;;5093016;28;20115;-85
2022/10/10 05:31:17;;;;;;;11.13;2.40;;;6.40;99.90;;;;;;5092735;28;20044;-85
2022/10/10 05:33:43;;;;;;;7.40;2.70;;;6.40;99.90;;;;;;5092856;28;20044;-85
2022/10/10 05:36:12;;;;;;;5.65;2.33;;;6.40;99.90;;;;;;5089557;28;20044;-85
2022/10/10 05:38:40;;;;;;;7.20;3.10;;;6.40;99.90;;;;;;5072619;28;20040;-85
2022/10/10 05:41:08;;;;;;;5.20;2.88;;;6.60;99.90;;;;;;5089416;28;20047;-85
2022/10/10 05:43:34;;;;;;;7.10;2.70;;;6.50;99.90;;;;;;5072682;28;20136;-85
2022/10/10 05:46:01;;;;;;;8.63;2.97;;;6.40;99.90;;;;;;5075790;28;20530;-85
2022/10/10 05:48:28;;;;;;;6.15;2.60;;;6.50;99.90;;;;;;5093105;28;20032;-85
2022/10/10 05:50:57;;;;;;;5.53;2.70;;;6.40;99.90;;;;;;5076183;28;20036;-85
2022/10/10 05:53:25;;;;;;;6.38;2.33;;;6.40;99.90;;;;;;5109438;28;20044;-86
2022/10/10 05:55:52;;;;;;;7.22;3.00;;;7.10;99.90;;;;;;5109812;28;20517;-85
2022/10/10 05:58:19;;;;;;;9.68;2.63;;;6.70;99.90;;;;;;5109361;28;20079;-85
2022/10/10 06:00:46;;;;;;;8.02;2.60;;;6.50;99.90;;;;;;5076638;28;20504;-85
2022/10/10 06:03:15;;;;;;;7.68;3.17;;;6.50;99.90;;;;;;5092487;28;20040;-85
2022/10/10 06:05:44;;;;;;;4.45;2.30;;;6.50;99.90;;;;;;5108926;28;20123;-85
2022/10/10 06:08:11;;;;;;;7.18;2.95;;;6.50;99.90;;;;;;5125887;28;20124;-85
2022/10/10 06:10:41;;;;;;;5.70;2.50;;;6.70;99.90;;;;;;5092965;28;20040;-85
2022/10/10 06:13:08;;;;;;;5.82;2.95;;;6.60;99.90;;;;;;5109539;28;20488;-85
2022/10/10 06:15:35;;;;;;;7.70;2.90;;;6.60;99.90;;;;;;5109090;28;20044;-84
2022/10/10 06:18:02;;;;;;;5.70;2.90;;;6.60;99.90;;;;;;5076585;28;20716;-85
2022/10/10 06:20:29;;;;;;;5.70;2.70;;;6.60;99.90;;;;;;5109425;28;20043;-85
2022/10/10 06:22:55;;;;;;;5.30;2.60;;;6.70;99.90;;;;;;5092844;28;20121;-85
2022/10/10 06:25:22;;;;;;;4.72;2.60;;;7.10;99.90;;;;;;5108990;28;20032;-85
2022/10/10 06:27:49;;;;;;;6.50;2.97;;;6.70;99.90;;;;;;5100319;28;20047;-86
2022/10/10 06:30:16;;;;;;;8.00;3.00;;;6.80;99.90;;;;;;5069010;28;20032;-85
2022/10/10 06:32:42;;;;;;;5.57;2.60;;;7.00;99.90;;;;;;5077191;28;20082;-85
2022/10/10 06:35:09;;;;;;;6.13;2.95;;;6.80;99.90;;;;;;5082523;28;20037;-85
2022/10/10 06:37:36;;;;;;;5.70;2.78;;;6.80;99.90;;;;;;5084822;28;20044;-85
2022/10/10 06:40:03;;;;;;;9.63;2.95;;;6.90;99.90;;;;;;5084771;28;20174;-84
2022/10/10 06:42:30;;;;;;;5.80;2.88;;;6.90;99.90;;;;;;5122046;28;20081;-86
2022/10/10 06:44:57;;;;;;;7.05;2.95;;;6.90;99.90;;;;;;5080057;28;20044;-87
2022/10/10 06:47:24;;;;;;;5.95;2.90;;;6.90;99.90;;;;;;5104773;28;20036;-86
2022/10/10 06:49:50;;;;;;;5.63;2.70;;;6.90;99.90;;;;;;5094140;28;20036;-87
2022/10/10 06:52:17;;;;;;;7.72;3.33;;;6.90;99.90;;;;;;5075941;28;20104;-87
2022/10/10 06:54:44;;;;;;;6.63;3.03;;;6.90;99.90;;;;;;5059507;28;20447;-85
2022/10/10 06:57:11;;;;;;;5.35;2.85;;;7.00;99.90;;;;;;5070860;28;20543;-85
2022/10/10 06:59:37;;;;;;;6.35;2.85;;;7.00;99.90;;;;;;5095795;28;20048;-86
2022/10/10 07:02:04;;;;;;;7.55;2.97;;;7.10;99.90;;;;;;5095727;28;20036;-85
2022/10/10 07:04:31;;;;;;;6.80;3.00;;;7.10;99.90;;;;;;5078864;28;20052;-84
2022/10/10 07:06:57;;;;;;;5.80;3.05;;;7.10;99.90;;;;;;5079431;28;20036;-87
2022/10/10 07:09:24;;;;;;;6.15;2.80;;;7.70;99.90;;;;;;5071492;28;20481;-89
2022/10/10 07:11:51;;;;;;;8.38;3.35;;;7.30;99.90;;;;;;5059838;28;20119;-87
2022/10/10 07:14:17;;;;;;;6.00;3.40;;;7.40;99.90;;;;;;5060188;28;20044;-90
2022/10/10 07:16:44;;;;;;;7.60;3.00;;;7.40;99.90;;;;;;5076965;28;20519;-85
2022/10/10 07:19:11;;;;;;;5.50;3.08;;;7.60;99.90;;;;;;5079341;28;20123;-86
2022/10/10 07:21:37;;;;;;;5.93;3.28;;;7.60;99.90;;;;;;5071040;28;20036;-85
2022/10/10 07:24:04;;;;;;;6.82;3.33;;;7.70;99.90;;;;;;5078709;28;20067;-85
2022/10/10 07:26:35;;;;;;;7.40;3.20;;;7.70;99.90;;;;;;5095448;28;20036;-85
2022/10/10 07:29:04;;;;;;;8.90;3.00;;;7.80;99.90;;;;;;5096302;28;20043;-85
2022/10/10 07:31:31;;;;;;;8.30;3.25;;;7.90;99.90;;;;;;5128841;28;20066;-85
2022/10/10 07:33:58;;;;;;;8.75;3.00;;;8.00;99.90;;;;;;5078889;28;20043;-86
2022/10/10 07:36:25;;;;;;;6.18;3.30;;;8.80;99.90;;;;;;5128978;28;20051;-86
2022/10/10 07:38:53;;;;;;;7.22;3.58;;;8.20;99.90;;;;;;5095486;28;20040;-85
2022/10/10 07:41:20;;;;;;;7.53;3.40;;;8.30;99.90;;;;;;5110796;28;20044;-85
2022/10/10 07:43:52;;;;;;;6.22;3.30;;;8.40;99.90;;;;;;5111145;28;20051;-85
2022/10/10 07:46:19;;;;;;;7.30;3.30;;;8.70;99.90;;;;;;5111533;28;20028;-86
2022/10/10 07:48:48;;;;;;;6.30;3.33;;;8.60;99.90;;;;;;5095113;28;20478;-85
2022/10/10 07:51:15;;;;;;;5.75;2.95;;;8.90;99.90;;;;;;5091884;28;20032;-85
2022/10/10 07:53:43;;;;;;;7.50;3.10;;;8.70;99.90;;;;;;5091513;28;20123;-85
2022/10/10 07:56:10;;;;;;;6.45;3.90;;;8.90;99.90;;;;;;5075374;28;20090;-86
2022/10/10 07:58:37;;;;;;;6.25;3.63;;;8.90;99.90;;;;;;5108160;28;20080;-85
2022/10/10 08:01:06;;;;;;;11.48;3.53;;;9.00;99.90;;;;;;5059694;28;20048;-85
2022/10/10 08:03:35;;;;;;;8.23;3.85;;;9.10;99.90;;;;;;5091336;28;20466;-85
2022/10/10 08:06:08;;;;;;;9.02;3.78;;;9.20;99.90;;;;;;5107919;28;20044;-86
2022/10/10 08:08:37;;;;;;;5.93;3.22;;;9.40;99.90;;;;;;5091297;28;20076;-85
2022/10/10 08:11:05;;;;;;;6.40;3.65;;;9.40;99.90;;;;;;5091115;28;20123;-85
2022/10/10 08:13:33;;;;;;;5.63;3.03;;;9.60;99.90;;;;;;5108238;28;20071;-85
2022/10/10 08:16:01;;;;;;;7.75;3.97;;;9.60;99.90;;;;;;5111223;28;20415;-85
2022/10/10 08:18:28;;;;;;;8.50;3.60;;;9.70;99.90;;;;;;5094676;28;20040;-85
2022/10/10 08:21:09;;;;;;;5.88;3.22;;;9.70;99.90;;;;;;5094229;28;20047;-85
2022/10/10 08:23:36;;;;;;;7.50;3.47;;;9.80;99.90;;;;;;5110606;28;20526;-85
2022/10/10 08:26:06;;;;;;;11.15;3.47;;;9.80;99.90;;;;;;5110682;28;20044;-85
2022/10/10 08:28:34;;;;;;;7.43;3.40;;;10.00;99.90;;;;;;5111047;28;20555;-84
2022/10/10 08:31:12;;;;;;;9.13;4.30;;;10.10;99.90;;;;;;5110977;28;20043;-85
2022/10/10 08:33:41;;;;;;;9.30;4.40;;;10.20;99.90;;;;;;5127468;28;20040;-85
2022/10/10 08:36:12;;;;;;;7.95;3.90;;;10.30;99.90;;;;;;5110712;28;20044;-85
2022/10/10 08:38:38;;;;;;;9.50;3.70;;;10.40;99.90;;;;;;5110368;28;20039;-85
2022/10/10 08:41:19;;;;;;;7.13;3.28;;;10.50;99.90;;;;;;5094355;28;20039;-85
2022/10/10 08:43:51;;;;;;;7.57;3.80;;;10.70;99.90;;;;;;5109994;28;20049;-85
2022/10/10 08:46:33;;;;;;;7.38;3.15;;;10.60;99.90;;;;;;5110569;28;20463;-85
2022/10/10 08:49:11;;;;;;;6.53;3.47;;;10.70;99.90;;;;;;5110010;28;20036;-85
2022/10/10 08:51:41;;;;;;;6.72;3.45;;;10.70;99.90;;;;;;5110187;28;20148;-85
2022/10/10 08:54:12;;;;;;;6.63;3.30;;;10.70;99.90;;;;;;5127047;28;20044;-85
2022/10/10 08:56:40;;;;;;;9.13;3.70;;;10.80;99.90;;;;;;5110203;28;20384;-85
2022/10/10 08:59:16;;;;;;;9.85;3.50;;;10.80;99.90;;;;;;5110139;28;20496;-85
2022/10/10 09:01:43;;;;;;;7.55;3.60;;;10.90;99.90;;;;;;5109995;28;20085;-85
2022/10/10 09:04:16;;;;;;;6.80;3.50;;;10.90;99.90;;;;;;5126958;28;20052;-85
2022/10/10 09:06:53;;;;;;;9.27;3.85;;;10.90;99.90;;;;;;5110062;28;20120;-85
2022/10/10 09:09:38;;;;;;;9.88;3.50;;;10.90;99.90;;;;;;5110317;28;20093;-85
2022/10/10 09:12:29;;;;;;;5.80;2.80;;;10.90;99.90;;;;;;5110226;28;20396;-86
2022/10/10 09:15:35;;;;;;;7.57;3.58;;;10.80;99.90;;;;;;5127173;28;20044;-85
2022/10/10 09:18:13;;;;;;;8.68;4.03;;;10.80;99.90;;;;;;5109245;28;20048;-85
2022/10/10 09:20:58;;;;;;;9.30;4.22;;;10.80;99.90;;;;;;5110314;28;20044;-86
2022/10/10 09:23:34;;;;;;;5.72;3.42;;;10.90;99.90;;;;;;5110204;28;20137;-86
2022/10/10 09:26:13;;;;;;;7.20;3.70;;;11.10;99.90;;;;;;5110324;28;20040;-85
2022/10/10 09:29:07;;;;;;;7.65;3.38;;;11.20;99.90;;;;;;5110155;28;20472;-86
2022/10/10 09:31:45;;;;;;;10.52;4.00;;;11.40;99.90;;;;;;5110046;28;20047;-85
2022/10/10 09:34:38;;;;;;;8.45;4.40;;;11.50;99.90;;;;;;5109819;28;20446;-85
2022/10/10 09:37:14;;;;;;;7.38;3.38;;;11.70;99.90;;;;;;5109850;28;20543;-86
2022/10/10 09:39:51;;;;;;;6.22;3.45;;;11.80;99.90;;;;;;5110020;28;20048;-85
2022/10/10 09:42:25;;;;;;;5.97;3.38;;;11.90;99.90;;;;;;5109854;28;20101;-86
2022/10/10 09:44:52;;;;;;;7.18;3.67;;;12.00;99.90;;;;;;5110026;28;20051;-85
2022/10/10 09:47:19;;;;;;;7.40;3.42;;;12.00;99.90;;;;;;5093280;28;20040;-85
2022/10/10 09:49:46;;;;;;;6.30;3.65;;;12.00;99.90;;;;;;5093293;28;20126;-85
2022/10/10 09:52:31;;;;;;;10.90;3.88;;;12.10;99.90;;;;;;5093332;28;20068;-86
2022/10/10 09:55:05;;;;;;;9.13;4.32;;;12.10;99.90;;;;;;5110000;28;20042;-86
2022/10/10 09:57:38;;;;;;;7.32;4.22;;;12.10;99.90;;;;;;5110007;28;20093;-86
2022/10/10 10:00:19;;;;;;;8.90;3.67;;;12.20;99.90;;;;;;5110192;28;20488;-86
2022/10/10 10:03:07;;;;;;;8.30;4.07;;;12.30;99.90;;;;;;5109674;28;20091;-83
2022/10/10 10:05:34;;;;;;;10.15;4.05;;;12.40;99.90;;;;;;5111880;28;20503;-86
2022/10/10 10:08:01;;;;;;;9.40;3.70;;;12.50;99.90;;;;;;5113771;28;20040;-86
2022/10/10 10:10:29;;;;;;;9.45;3.88;;;12.60;99.90;;;;;;5130852;28;20044;-85
2022/10/10 10:12:56;;;;;;;8.27;3.88;;;12.80;99.90;;;;;;5097406;28;20043;-85
2022/10/10 10:15:31;;;;;;;7.97;3.63;;;12.80;99.90;;;;;;5130472;28;20515;-85
2022/10/10 10:18:19;;;;;;;10.98;4.00;;;12.80;99.90;;;;;;5082750;28;20103;-84
2022/10/10 10:20:49;;;;;;;8.68;4.10;;;12.80;99.90;;;;;;5129742;28;20040;-85
2022/10/10 10:23:41;;;;;;;7.20;3.80;;;12.80;99.90;;;;;;5112411;28;20032;-84
2022/10/10 10:26:40;;;;;;;9.38;3.90;;;12.80;99.90;;;;;;5113155;28;20119;-85
2022/10/10 10:29:26;;;;;;;7.57;4.15;;;12.90;99.90;;;;;;5112681;28;20573;-85
2022/10/10 10:32:01;;;;;;;12.20;4.30;;;12.90;99.90;;;;;;5092827;28;20072;-85
2022/10/10 10:34:46;;;;;;;9.13;4.00;;;12.90;99.90;;;;;;5109986;28;20041;-85
2022/10/10 10:37:35;;;;;;;8.02;3.90;;;12.90;99.90;;;;;;5093113;28;20040;-85
2022/10/10 10:40:23;;;;;;;8.13;4.28;;;13.00;99.90;;;;;;5097646;28;20484;-85
2022/10/10 10:43:00;;;;;;;9.80;4.22;;;13.10;99.90;;;;;;5112765;28;20043;-86
2022/10/10 10:45:37;;;;;;;7.90;4.25;;;13.20;99.90;;;;;;5113485;28;20043;-86
2022/10/10 10:48:38;;;;;;;9.77;4.47;;;13.20;99.90;;;;;;5129992;28;20039;-85
2022/10/10 10:51:45;;;;;;;9.13;4.43;;;13.40;99.90;;;;;;5112626;28;20032;-85
2022/10/10 10:54:36;;;;;;;7.43;4.28;;;13.60;99.90;;;;;;5129283;28;20044;-86
2022/10/10 10:57:26;;;;;;;12.65;4.45;;;13.60;99.90;;;;;;5106925;28;20039;-85
2022/10/10 11:00:04;;;;;;;8.77;3.95;;;13.70;99.90;;;;;;5113079;28;20476;-86
2022/10/10 11:02:30;;;;;;;12.18;3.90;;;13.70;99.90;;;;;;5112687;28;20040;-86
2022/10/10 11:05:15;;;;;;;8.00;4.07;;;13.80;99.90;;;;;;5112429;28;20062;-86
2022/10/10 11:08:10;;;;;;;9.10;4.00;;;13.90;99.90;;;;;;5103864;28;20055;-86
2022/10/10 11:11:11;;;;;;;9.82;3.70;;;14.00;99.90;;;;;;5112689;28;20505;-86
2022/10/10 11:14:04;;;;;;;10.52;4.10;;;14.20;99.90;;;;;;5126112;28;20050;-87
2022/10/10 11:16:45;;;;;;;8.10;3.70;;;14.40;99.90;;;;;;5109194;28;20043;-86
2022/10/10 11:19:12;;;;;;;8.15;3.25;;;14.50;99.90;;;;;;5112233;28;20069;-86
2022/10/10 11:22:01;;;;;;;6.65;3.55;;;14.50;99.90;;;;;;5129301;28;20111;-87
2022/10/10 11:24:43;;;;;;;13.25;3.50;;;14.60;99.90;;;;;;5112267;28;20123;-87
2022/10/10 11:27:19;;;;;;;10.68;3.85;;;14.60;99.90;;;;;;5112580;28;20048;-85
2022/10/10 11:29:59;;;;;;;7.88;3.30;;;14.60;99.90;;;;;;5112475;28;20440;-86
2022/10/10 11:32:33;;;;;;;6.97;3.55;;;14.60;99.90;;;;;;5128841;28;20043;-86
2022/10/10 11:35:05;;;;;;;8.57;4.00;;;14.60;99.90;;;;;;5112064;28;20073;-85
2022/10/10 11:37:39;;;;;;;7.15;3.97;;;14.60;99.90;;;;;;5112702;28;20078;-86
2022/10/10 11:40:25;;;;;;;9.50;4.32;;;14.70;99.90;;;;;;5112241;28;20040;-86
2022/10/10 11:42:59;;;;;;;7.43;4.00;;;14.70;99.90;;;;;;5112437;28;20074;-86
2022/10/10 11:45:42;;;;;;;8.52;4.55;;;14.70;99.90;;;;;;5112175;28;20040;-86
2022/10/10 11:48:45;;;;;;;10.50;3.90;;;14.70;99.90;;;;;;5111921;28;20039;-84
2022/10/10 11:51:48;;;;;;;9.80;4.13;;;14.60;99.90;;;;;;5081099;28;20742;-85
2022/10/10 11:54:33;;;;;;;7.80;3.80;;;14.60;99.90;;;;;;5111969;28;20043;-86
2022/10/10 11:57:04;;;;;;;9.32;4.18;;;14.50;99.90;;;;;;5111440;28;20074;-82
2022/10/10 11:59:41;;;;;;;7.90;4.78;;;14.40;99.90;;;;;;5111601;28;20035;-86
2022/10/10 12:02:25;;;;;;;8.40;3.85;;;14.30;99.90;;;;;;5111618;28;20036;-86
2022/10/10 12:04:51;;;;;;;6.90;3.78;;;14.20;99.90;;;;;;5111765;28;20140;-86
2022/10/10 12:07:22;;;;;;;7.97;4.25;;;14.20;99.90;;;;;;5111154;28;20126;-84
2022/10/10 12:09:57;;;;;;;10.65;4.78;;;14.10;99.90;;;;;;5111459;28;20040;-85
2022/10/10 12:12:33;;;;;;;7.30;4.00;;;14.00;99.90;;;;;;5127822;28;20036;-85
2022/10/10 12:15:02;;;;;;;15.02;4.82;;;14.00;99.90;;;;;;5111136;28;20557;-85
2022/10/10 12:17:34;;;;;;;12.32;4.22;;;13.90;99.90;;;;;;5111500;28;20036;-85
2022/10/10 12:20:14;;;;;;;10.60;3.80;;;13.80;99.90;;;;;;5127889;28;20484;-85
2022/10/10 12:22:41;;;;;;;6.70;3.60;;;13.80;99.90;;;;;;5091059;28;20053;-84
2022/10/10 12:25:24;;;;;;;14.27;4.50;;;13.70;99.90;;;;;;5107009;28;20127;-85
2022/10/10 12:28:14;;;;;;;7.45;3.80;;;13.80;99.90;;;;;;5110119;28;20105;-85
2022/10/10 12:30:56;;;;;;;10.52;5.07;;;13.80;99.90;;;;;;5092986;28;20041;-85
2022/10/10 12:33:31;;;;;;;8.48;4.65;;;13.70;99.90;;;;;;5110487;28;20044;-85
2022/10/10 12:36:21;;;;;;;11.15;5.47;;;13.70;99.90;;;;;;5110782;28;20043;-85
2022/10/10 12:39:00;;;;;;;9.27;4.55;;;13.60;99.90;;;;;;5110856;28;20047;-86
2022/10/10 12:41:39;;;;;;;6.57;3.35;;;13.60;99.90;;;;;;5110727;28;20561;-85
2022/10/10 12:44:24;;;;;;;10.25;3.58;;;13.50;99.90;;;;;;5110056;28;20511;-84
2022/10/10 12:47:32;;;;;;;11.90;3.83;;;13.50;99.90;;;;;;5107188;28;20040;-85
2022/10/10 12:50:03;;;;;;;9.35;3.95;;;13.50;99.90;;;;;;5071949;28;20053;-85
2022/10/10 12:52:34;;;;;;;6.47;3.78;;;13.50;99.90;;;;;;5110293;28;20044;-85
2022/10/10 12:55:18;;;;;;;9.25;4.38;;;13.50;99.90;;;;;;5110360;28;20036;-86
2022/10/10 12:57:47;;;;;;;10.00;4.60;;;13.40;99.90;;;;;;5110502;28;20066;-85
2022/10/10 13:00:21;;;;;;;9.32;4.10;;;13.50;99.90;;;;;;5093790;28;20446;-84
2022/10/10 13:02:57;;;;;;;9.02;4.13;;;13.50;99.90;;;;;;5110385;28;20553;-85
2022/10/10 13:05:34;;;;;;;16.13;5.50;;;13.50;99.90;;;;;;5110064;28;20496;-86
2022/10/10 13:08:10;;;;;;;12.27;4.70;;;13.50;99.90;;;;;;5110250;28;20032;-85
2022/10/10 13:10:37;;;;;;;12.30;6.63;;;13.60;99.90;;;;;;5110439;28;20512;-86
2022/10/10 13:13:17;;;;;;;11.55;5.90;;;13.60;99.90;;;;;;5093826;28;20104;-86
2022/10/10 13:15:56;;;;;;;12.85;5.13;;;13.60;99.90;;;;;;5110510;28;20096;-84
2022/10/10 13:18:49;;;;;;;9.70;3.83;;;13.60;99.90;;;;;;5110498;28;20044;-85
2022/10/10 13:21:26;;;;;;;7.35;4.20;;;13.50;99.90;;;;;;5110205;28;20040;-85